createdAt,value
2023-10-19T00:00:02.546Z,21.85
2023-10-19T00:05:05.243Z,18.25
2023-10-19T00:10:08.918Z,19.87
2023-10-19T00:15:11.532Z,18.62
2023-10-19T00:20:13.254Z,19.02
2023-10-19T00:25:16.389Z,18.62
2023-10-19T00:30:18.222Z,20.77
2023-10-19T00:35:20.147Z,21.23
2023-10-19T00:40:23.338Z,22.15
2023-10-19T00:45:25.220Z,20.80
2023-10-19T00:50:27.078Z,19.70
2023-10-19T00:55:30.871Z,19.23
2023-10-19T01:00:32.642Z,15.50
2023-10-19T01:05:34.402Z,19.10
2023-10-19T01:10:37.822Z,18.15
2023-10-19T01:15:39.644Z,18.75
2023-10-19T01:20:41.365Z,19.37
2023-10-19T01:25:49.133Z,19.30
2023-10-19T01:30:50.963Z,17.98
2023-10-19T01:35:52.685Z,18.55
2023-10-19T01:40:56.973Z,20.37
2023-10-19T01:46:00.125Z,18.90
2023-10-19T01:51:04.278Z,17.58
2023-10-19T01:56:07.802Z,16.80
2023-10-19T02:01:10.980Z,20.35
2023-10-19T02:06:14.934Z,18.37
2023-10-19T02:11:20.812Z,18.77
2023-10-19T02:16:23.700Z,20.12
2023-10-19T02:21:25.554Z,19.77
2023-10-19T02:26:28.653Z,19.87
2023-10-19T02:31:30.386Z,21.50
2023-10-19T02:36:32.538Z,23.17
2023-10-19T02:41:36.853Z,21.23
2023-10-19T02:46:38.730Z,21.40
2023-10-19T02:51:41.590Z,23.12
2023-10-19T02:56:44.747Z,23.08
2023-10-19T03:01:46.470Z,19.90
2023-10-19T03:06:49.022Z,21.98
2023-10-19T03:11:52.184Z,22.37
2023-10-19T03:16:54.419Z,20.83
2023-10-19T03:21:56.525Z,19.62
2023-10-19T03:27:00.011Z,20.45
2023-10-19T03:32:01.883Z,23.50
2023-10-19T03:37:03.855Z,23.20
2023-10-19T03:42:07.149Z,21.55
2023-10-19T03:47:08.936Z,21.08
2023-10-19T03:52:10.697Z,20.50
2023-10-19T03:57:15.696Z,23.38
2023-10-19T04:02:17.985Z,21.90
2023-10-19T04:07:20.187Z,20.33
2023-10-19T04:12:23.335Z,23.85
2023-10-19T04:17:25.611Z,20.27
2023-10-19T04:22:27.461Z,22.77
2023-10-19T04:27:30.930Z,23.67
2023-10-19T04:32:32.650Z,23.67
2023-10-19T04:37:34.416Z,21.83
2023-10-19T04:42:38.186Z,24.48
2023-10-19T04:47:40.470Z,24.40
2023-10-19T04:52:42.358Z,22.17
2023-10-19T04:57:45.551Z,22.25
2023-10-19T05:02:47.512Z,20.83
2023-10-19T05:07:49.355Z,22.17
2023-10-19T05:12:52.466Z,20.50
2023-10-19T05:17:55.392Z,21.40
2023-10-19T05:22:57.224Z,24.60
2023-10-19T05:28:00.450Z,23.77
2023-10-19T05:33:02.540Z,23.80
2023-10-19T05:38:04.595Z,24.90
2023-10-19T05:43:07.749Z,22.48
2023-10-19T05:48:09.557Z,28.30
2023-10-19T05:53:11.271Z,20.45
2023-10-19T05:58:14.474Z,24.35
2023-10-19T06:03:16.234Z,23.33
2023-10-19T06:08:18.033Z,20.30
2023-10-19T06:13:21.471Z,21.98
2023-10-19T06:18:23.331Z,24.90
2023-10-19T06:23:25.475Z,30.30
2023-10-19T06:28:28.689Z,22.35
2023-10-19T06:33:30.494Z,23.42
2023-10-19T06:38:32.295Z,25.33
2023-10-19T06:43:35.477Z,26.12
2023-10-19T06:48:37.283Z,22.95
2023-10-19T06:53:39.092Z,24.80
2023-10-19T06:58:42.349Z,29.92
2023-10-19T07:03:44.174Z,26.00
2023-10-19T07:08:45.963Z,27.02
2023-10-19T07:13:49.168Z,29.60
2023-10-19T07:18:53.910Z,23.65
2023-10-19T07:23:58.622Z,25.48
2023-10-19T07:29:01.812Z,24.60
2023-10-19T07:34:03.634Z,26.20
2023-10-19T07:39:05.462Z,23.75
2023-10-19T07:44:08.643Z,29.75
2023-10-19T07:49:10.402Z,22.42
2023-10-19T07:54:12.183Z,26.10
2023-10-19T07:59:15.412Z,25.65
2023-10-19T08:04:17.227Z,26.62
2023-10-19T08:09:19.153Z,24.87
2023-10-19T08:14:22.533Z,28.30
2023-10-19T08:19:24.284Z,28.87
2023-10-19T08:24:26.107Z,27.02
2023-10-19T08:29:29.274Z,27.13
2023-10-19T08:34:34.668Z,22.77
2023-10-19T08:39:36.588Z,22.27
2023-10-19T08:44:39.768Z,23.62
2023-10-19T08:49:43.972Z,21.20
2023-10-19T08:54:46.487Z,24.05
2023-10-19T08:59:52.044Z,23.17
2023-10-19T09:04:56.499Z,25.98
2023-10-19T09:09:58.449Z,25.62
2023-10-19T09:15:01.582Z,27.70
2023-10-19T09:20:03.737Z,26.05
2023-10-19T09:25:06.626Z,26.15
2023-10-19T09:30:13.444Z,26.33
2023-10-19T09:35:16.486Z,27.48
2023-10-19T09:40:18.350Z,27.83
2023-10-19T09:45:28.856Z,26.85
2023-10-19T09:50:30.662Z,26.02
2023-10-19T09:55:38.747Z,24.08
2023-10-19T10:00:44.712Z,21.92
2023-10-19T10:05:46.821Z,20.73
2023-10-19T10:10:52.110Z,20.65
2023-10-19T10:15:59.311Z,19.75
2023-10-19T10:21:07.882Z,21.40
2023-10-19T10:26:10.857Z,19.70
2023-10-19T10:31:16.053Z,20.23
2023-10-19T10:41:23.648Z,20.70
2023-10-19T10:46:28.497Z,22.92
2023-10-19T10:51:30.461Z,21.67
2023-10-19T10:56:32.279Z,22.15
2023-10-19T11:01:35.497Z,21.58
2023-10-19T11:06:50.629Z,21.70
2023-10-19T11:11:52.480Z,19.35
2023-10-19T11:17:12.860Z,17.35
2023-10-19T11:22:14.771Z,17.35
2023-10-19T11:27:23.544Z,19.25
2023-10-19T11:32:27.114Z,17.60
2023-10-19T11:37:28.894Z,18.98
2023-10-19T11:42:33.538Z,18.92
2023-10-19T11:47:36.699Z,19.17
2023-10-19T11:52:38.558Z,17.48
2023-10-19T11:57:40.616Z,19.12
2023-10-19T12:02:46.479Z,18.50
2023-10-19T12:07:48.344Z,19.52
2023-10-19T12:13:00.702Z,18.98
2023-10-19T12:18:05.300Z,19.55
2023-10-19T12:23:07.168Z,20.45
2023-10-19T12:28:09.326Z,18.50
2023-10-19T12:33:12.792Z,17.50
2023-10-19T12:38:14.740Z,17.75
2023-10-19T12:43:17.338Z,17.37
2023-10-19T12:48:21.144Z,17.17
2023-10-19T12:53:23.006Z,19.02
2023-10-19T12:58:24.857Z,17.00
2023-10-19T13:03:28.049Z,17.17
2023-10-19T13:08:29.969Z,17.30
2023-10-19T13:13:31.728Z,17.45
2023-10-19T13:18:34.879Z,18.60
2023-10-19T13:23:36.739Z,18.58
2023-10-19T13:28:38.668Z,19.80
2023-10-19T13:33:41.960Z,20.30
2023-10-19T13:38:43.745Z,18.75
2023-10-19T13:43:45.611Z,17.60
2023-10-19T13:48:48.921Z,19.02
2023-10-19T13:53:50.623Z,19.90
2023-10-19T13:58:52.979Z,16.92
2023-10-19T14:03:58.710Z,18.27
2023-10-19T14:09:00.599Z,18.35
2023-10-19T14:14:02.472Z,17.55
2023-10-19T14:19:05.827Z,17.45
2023-10-19T14:24:08.124Z,17.67
2023-10-19T14:29:09.984Z,18.48
2023-10-19T14:34:13.147Z,18.15
2023-10-19T14:39:14.901Z,17.83
2023-10-19T14:44:19.763Z,16.73
2023-10-19T14:49:23.489Z,15.85
2023-10-19T14:54:25.298Z,17.73
2023-10-19T14:59:27.007Z,18.40
2023-10-19T15:04:30.237Z,19.15
2023-10-19T15:09:32.319Z,18.83
2023-10-19T15:14:34.374Z,17.50
2023-10-19T15:19:37.883Z,18.50
2023-10-19T15:24:39.760Z,18.83
2023-10-19T15:29:41.608Z,18.40
2023-10-19T15:34:44.830Z,16.70
2023-10-19T15:39:46.660Z,17.40
2023-10-19T15:44:48.809Z,18.02
2023-10-19T15:49:53.330Z,17.23
2023-10-19T15:54:57.210Z,17.67
2023-10-19T15:59:58.995Z,15.43
2023-10-19T16:05:02.273Z,16.85
2023-10-19T16:10:04.510Z,15.95
2023-10-19T16:15:07.360Z,17.95
2023-10-19T16:20:11.703Z,18.08
2023-10-19T16:25:13.697Z,18.07
2023-10-19T16:30:15.610Z,16.15
2023-10-19T16:35:19.064Z,15.70
2023-10-19T16:40:20.900Z,16.02
2023-10-19T16:45:22.668Z,18.15
2023-10-19T16:50:25.854Z,17.30
2023-10-19T16:55:28.581Z,17.95
2023-10-19T17:00:30.343Z,18.05
2023-10-19T17:05:33.522Z,17.10
2023-10-19T17:10:35.323Z,17.67
2023-10-19T17:15:37.150Z,17.48
2023-10-19T17:20:40.304Z,16.23
2023-10-19T17:25:42.138Z,16.92
2023-10-19T17:30:44.052Z,18.37
2023-10-19T17:35:47.283Z,17.30
2023-10-19T17:40:49.137Z,17.77
2023-10-19T17:45:50.872Z,19.45
2023-10-19T17:50:54.068Z,19.98
2023-10-19T17:55:57.506Z,18.05
2023-10-19T18:00:59.368Z,18.37
2023-10-19T18:06:02.914Z,17.67
2023-10-19T18:11:05.320Z,19.42
2023-10-19T18:16:07.269Z,19.23
2023-10-19T18:21:13.824Z,19.67
2023-10-19T18:26:16.009Z,18.25
2023-10-19T18:31:17.814Z,17.73
2023-10-19T18:36:20.966Z,16.40
2023-10-19T18:41:22.815Z,17.25
2023-10-19T18:46:24.611Z,18.73
2023-10-19T18:51:28.153Z,17.67
2023-10-19T18:56:29.875Z,16.60
2023-10-19T19:01:31.608Z,16.58
2023-10-19T19:06:34.812Z,16.65
2023-10-19T19:11:36.508Z,16.98
2023-10-19T19:16:38.225Z,17.40
2023-10-19T19:21:41.369Z,17.65
2023-10-19T19:26:43.122Z,18.15
2023-10-19T19:31:45.050Z,16.98
2023-10-19T19:36:48.268Z,18.55
2023-10-19T19:41:50.025Z,16.90
2023-10-19T19:46:52.018Z,15.95
2023-10-19T19:51:55.388Z,16.77
2023-10-19T19:56:59.732Z,16.58
2023-10-19T20:02:01.768Z,16.30
2023-10-19T20:07:07.761Z,17.65
2023-10-19T20:12:09.488Z,17.05
2023-10-19T20:17:12.616Z,18.27
2023-10-19T20:22:17.631Z,18.27
2023-10-19T20:27:19.341Z,18.08
2023-10-19T20:32:21.177Z,17.73
2023-10-19T20:37:24.449Z,16.12
2023-10-19T20:42:26.206Z,17.62
2023-10-19T20:47:28.078Z,16.65
2023-10-19T20:52:31.386Z,15.57
2023-10-19T20:57:34.437Z,18.33
2023-10-19T21:02:36.365Z,16.75
2023-10-19T21:07:39.972Z,16.73
2023-10-19T21:12:44.500Z,16.95
2023-10-19T21:17:48.302Z,16.75
2023-10-19T21:22:51.600Z,17.42
2023-10-19T21:27:53.432Z,15.57
2023-10-19T21:32:55.423Z,17.62
2023-10-19T21:38:01.744Z,16.90
2023-10-19T21:43:03.640Z,17.05
2023-10-19T21:48:06.607Z,15.55
2023-10-19T21:53:09.885Z,15.27
2023-10-19T21:58:11.727Z,14.65
2023-10-19T22:03:15.617Z,17.62
2023-10-19T22:08:19.098Z,16.60
2023-10-19T22:13:23.243Z,16.37
2023-10-19T22:18:25.178Z,17.20
2023-10-19T22:23:28.593Z,14.95
2023-10-19T22:28:30.611Z,14.63
2023-10-19T22:33:32.564Z,15.02
2023-10-19T22:38:35.839Z,15.55
2023-10-19T22:43:38.041Z,15.07
2023-10-19T22:48:39.866Z,13.95
2023-10-19T22:53:42.966Z,16.12
2023-10-19T22:58:44.698Z,14.65
2023-10-19T23:03:46.672Z,16.37
2023-10-19T23:08:49.675Z,16.37
2023-10-19T23:13:51.383Z,17.12
2023-10-19T23:18:53.161Z,19.20
2023-10-19T23:23:56.421Z,17.90
2023-10-19T23:28:58.424Z,18.35
2023-10-19T23:34:00.176Z,16.87
2023-10-19T23:39:03.497Z,17.62
2023-10-19T23:44:05.384Z,16.52
2023-10-19T23:49:07.180Z,16.65
2023-10-19T23:54:10.319Z,16.33
2023-10-19T23:59:12.088Z,15.55
